Time;durP1;ratioP1;P1;durP2;ratioP2;P2;SDS_P1;SDS_P2;PMS_P1;PMS_P2;Temp;Humidity;BMP_temperature;BMP_pressure;BME280_temperature;BME280_humidity;BME280_pressure;Samples;Min_cycle;Max_cycle;Signal;HPM_P1;HPM_P2
2024/01/29 00:01:48;;;;;;;2.35;0.95;;;;;;;20.59;38.74;102412.41;4927352;28;101359;-72
2024/01/29 00:04:14;;;;;;;1.52;0.88;;;;;;;20.59;38.71;102407.09;4928395;28;97405;-72
2024/01/29 00:06:39;;;;;;;2.35;1.73;;;;;;;20.59;38.11;102398.25;4921620;28;97188;-72
2024/01/29 00:09:05;;;;;;;2.70;1.40;;;;;;;20.59;38.62;102398.25;4923871;28;97221;-72
2024/01/29 00:11:32;;;;;;;2.47;1.38;;;;;;;20.59;38.29;102393.84;4910855;28;97049;-72
2024/01/29 00:13:58;;;;;;;1.65;0.98;;;;;;;20.58;38.15;102384.13;4923934;28;97331;-72
2024/01/29 00:16:23;;;;;;;2.00;1.48;;;;;;;20.58;38.43;102385.91;4909782;28;96958;-72
2024/01/29 00:18:49;;;;;;;2.90;1.85;;;;;;;20.59;38.41;102390.28;4927279;28;96850;-72
2024/01/29 00:21:14;;;;;;;2.42;0.90;;;;;;;20.58;38.63;102391.19;4893064;28;124213;-72
2024/01/29 00:23:39;;;;;;;1.92;1.20;;;;;;;20.58;38.21;102377.94;4910531;28;104813;-72
2024/01/29 00:26:05;;;;;;;1.98;1.25;;;;;;;20.57;38.17;102387.69;4908626;28;97327;-72
2024/01/29 00:28:30;;;;;;;1.98;0.93;;;;;;;20.57;38.68;102390.31;4909134;28;97027;-72
2024/01/29 00:30:55;;;;;;;2.28;1.60;;;;;;;20.58;38.69;102389.41;4892506;28;123475;-72
2024/01/29 00:33:21;;;;;;;1.98;1.10;;;;;;;20.58;38.59;102396.50;4924727;28;124806;-72
2024/01/29 00:35:46;;;;;;;2.40;1.40;;;;;;;20.58;38.48;102389.41;4928470;28;97065;-72
2024/01/29 00:38:11;;;;;;;2.10;1.10;;;;;;;20.57;38.63;102386.78;4909387;28;113253;-72
2024/01/29 00:40:37;;;;;;;3.20;1.65;;;;;;;20.57;38.41;102389.44;4909269;28;121654;-72
2024/01/29 00:43:03;;;;;;;4.22;1.08;;;;;;;20.57;38.29;102387.69;4927293;28;96856;-72
2024/01/29 00:45:28;;;;;;;1.98;1.00;;;;;;;20.57;38.63;102389.44;4928567;28;96674;-72
2024/01/29 00:47:54;;;;;;;2.20;1.48;;;;;;;20.58;38.41;102385.91;4893495;28;96843;-72
2024/01/29 00:50:19;;;;;;;2.53;1.25;;;;;;;20.58;38.48;102389.41;4910401;28;96809;-72
2024/01/29 00:52:45;;;;;;;2.05;1.60;;;;;;;20.57;38.33;102386.78;4910918;28;127755;-72
2024/01/29 00:55:10;;;;;;;1.90;0.95;;;;;;;20.57;38.62;102400.03;4909229;28;115615;-72
2024/01/29 00:57:35;;;;;;;1.90;1.13;;;;;;;20.57;38.49;102405.34;4925259;28;97569;-72
2024/01/29 01:00:02;;;;;;;3.03;1.60;;;;;;;20.56;38.44;102407.09;4925020;28;96944;-71
2024/01/29 01:02:28;;;;;;;2.15;1.60;;;;;;;20.55;38.54;102397.38;4924344;28;97620;-72
2024/01/29 01:04:53;;;;;;;2.35;1.23;;;;;;;20.57;38.33;102398.28;4913260;28;97180;-72
2024/01/29 01:07:19;;;;;;;2.90;1.55;;;;;;;20.56;38.16;102400.94;4913183;28;96907;-72
2024/01/29 01:09:44;;;;;;;2.65;1.70;;;;;;;20.56;38.40;102399.16;4912816;28;97268;-72
2024/01/29 01:12:09;;;;;;;1.85;0.73;;;;;;;20.56;38.57;102396.50;4893181;28;125418;-72
2024/01/29 01:14:35;;;;;;;3.08;1.02;;;;;;;20.55;38.71;102394.72;4927793;28;99327;-72
2024/01/29 01:17:00;;;;;;;2.85;1.90;;;;;;;20.55;38.15;102400.03;4912640;28;97893;-72
2024/01/29 01:19:25;;;;;;;2.67;1.80;;;;;;;20.56;38.29;102400.94;4911792;28;120445;-72
2024/01/29 01:21:51;;;;;;;2.35;1.23;;;;;;;20.54;38.43;102404.47;4910957;28;100038;-72
2024/01/29 01:24:16;;;;;;;3.70;1.58;;;;;;;20.55;38.42;102410.63;4911567;28;125261;-72
2024/01/29 01:26:41;;;;;;;2.22;1.13;;;;;;;20.54;38.48;102414.19;4930417;28;97144;-72
2024/01/29 01:29:07;;;;;;;2.55;1.55;;;;;;;20.54;38.49;102422.13;4921698;28;116707;-72
2024/01/29 01:31:32;;;;;;;2.63;1.13;;;;;;;20.55;38.44;102413.28;4925315;28;111945;-72
2024/01/29 01:33:58;;;;;;;2.03;0.90;;;;;;;20.54;38.36;102420.38;4911689;28;97239;-72
2024/01/29 01:36:23;;;;;;;2.10;1.55;;;;;;;20.54;38.29;102425.66;4928847;28;96692;-72
2024/01/29 01:38:48;;;;;;;2.17;1.13;;;;;;;20.54;38.33;102422.13;4909762;28;121846;-72
2024/01/29 01:41:14;;;;;;;2.40;1.58;;;;;;;20.54;38.34;102427.44;4911881;28;123895;-72
2024/01/29 01:43:39;;;;;;;2.10;0.93;;;;;;;20.53;38.39;102423.00;4912717;28;96859;-72
2024/01/29 01:46:04;;;;;;;2.45;1.60;;;;;;;20.53;38.56;102412.41;4929417;28;97065;-72
2024/01/29 01:48:34;;;;;;;2.55;1.15;;;;;;;20.53;38.50;102423.91;4930644;28;96909;-72
2024/01/29 01:51:00;;;;;;;2.08;0.98;;;;;;;20.54;38.22;102424.78;4911654;28;96920;-72
2024/01/29 01:53:29;;;;;;;2.78;1.77;;;;;;;20.54;38.23;102430.09;4930384;28;97249;-72
2024/01/29 01:55:55;;;;;;;2.55;1.88;;;;;;;20.53;38.18;102423.91;4895946;28;97272;-72
2024/01/29 01:58:22;;;;;;;1.90;1.02;;;;;;;20.53;38.35;102423.91;4917857;28;96845;-72
2024/01/29 02:00:48;;;;;;;2.30;1.10;;;;;;;20.53;38.10;102423.00;4910295;28;97582;-72
2024/01/29 02:03:14;;;;;;;2.20;1.63;;;;;;;20.52;38.16;102416.84;4904363;28;104892;-72
2024/01/29 02:05:39;;;;;;;2.38;1.40;;;;;;;20.53;38.40;102418.63;4928932;28;96969;-72
2024/01/29 02:08:05;;;;;;;2.88;2.00;;;;;;;20.53;38.37;102421.28;4927922;28;96974;-72
2024/01/29 02:10:31;;;;;;;1.90;1.10;;;;;;;20.53;38.30;102418.63;4912090;28;100343;-72
2024/01/29 02:12:56;;;;;;;2.38;1.50;;;;;;;20.53;38.42;102417.72;4926132;28;97225;-72
2024/01/29 02:15:23;;;;;;;2.10;1.30;;;;;;;20.52;38.27;102422.16;4908961;28;121009;-72
2024/01/29 02:17:48;;;;;;;2.13;1.60;;;;;;;20.53;38.10;102423.00;4925880;28;97199;-71
2024/01/29 02:20:16;;;;;;;2.13;1.02;;;;;;;20.52;38.29;102418.63;4926831;28;97389;-72
2024/01/29 02:22:45;;;;;;;2.08;1.20;;;;;;;20.52;38.28;102416.84;4924536;28;97279;-72
2024/01/29 02:25:12;;;;;;;2.28;1.13;;;;;;;20.52;38.15;102410.66;4927106;28;96721;-72
2024/01/29 02:27:37;;;;;;;1.83;1.02;;;;;;;20.53;38.29;102412.41;4925108;28;96848;-72
2024/01/29 02:30:04;;;;;;;2.28;1.13;;;;;;;20.52;38.11;102411.53;4929376;28;97418;-72
2024/01/29 02:32:30;;;;;;;1.75;1.05;;;;;;;20.52;38.01;102421.28;4924290;28;97527;-72
2024/01/29 02:34:55;;;;;;;1.90;1.23;;;;;;;20.53;38.38;102417.72;4924994;28;96827;-72
2024/01/29 02:37:21;;;;;;;2.05;1.35;;;;;;;20.52;38.09;102432.75;4927641;28;96991;-72
2024/01/29 02:39:50;;;;;;;2.33;1.15;;;;;;;20.50;38.07;102421.28;4911006;28;96870;-72
2024/01/29 02:42:18;;;;;;;2.72;1.05;;;;;;;20.51;38.01;102423.00;4928538;28;98266;-72
2024/01/29 02:44:45;;;;;;;2.35;2.03;;;;;;;20.51;38.36;102416.84;4911294;28;96864;-71
2024/01/29 02:47:10;;;;;;;1.95;0.95;;;;;;;20.51;38.17;102419.50;4929674;28;97308;-72
2024/01/29 02:49:35;;;;;;;1.60;1.10;;;;;;;20.51;38.26;102409.75;4927310;28;98625;-72
2024/01/29 02:52:01;;;;;;;2.13;1.10;;;;;;;20.51;38.22;102419.50;4927987;28;126744;-72
2024/01/29 02:54:26;;;;;;;1.80;1.15;;;;;;;20.50;38.03;102415.97;4929477;28;97360;-72
2024/01/29 02:56:51;;;;;;;1.75;0.93;;;;;;;20.50;38.37;102408.03;4893057;28;120975;-72
2024/01/29 02:59:17;;;;;;;2.42;1.70;;;;;;;20.50;38.09;102417.75;4926126;28;97364;-72
2024/01/29 03:01:42;;;;;;;2.70;1.40;;;;;;;20.50;38.32;102415.09;4925146;28;115752;-72
2024/01/29 03:04:07;;;;;;;1.85;1.38;;;;;;;20.50;38.27;102423.91;4909663;28;122322;-72
2024/01/29 03:06:33;;;;;;;2.10;1.45;;;;;;;20.50;38.25;102420.41;4923577;28;121332;-72
2024/01/29 03:08:59;;;;;;;2.05;1.02;;;;;;;20.49;38.35;102414.19;4927223;28;98105;-72
2024/01/29 03:11:24;;;;;;;2.83;1.67;;;;;;;20.50;38.32;102417.75;4926191;28;97205;-72
2024/01/29 03:13:49;;;;;;;2.35;1.70;;;;;;;20.49;38.00;102419.50;4907896;28;106992;-72
2024/01/29 03:16:15;;;;;;;3.03;1.83;;;;;;;20.49;38.02;102406.25;4907422;28;97219;-72
2024/01/29 03:18:40;;;;;;;1.88;1.17;;;;;;;20.49;38.06;102413.31;4906775;28;96874;-72
2024/01/29 03:21:05;;;;;;;2.33;1.10;;;;;;;20.49;38.01;102402.72;4923528;28;127345;-72
2024/01/29 03:23:31;;;;;;;2.53;1.30;;;;;;;20.49;38.20;102413.31;4908221;28;122273;-72
2024/01/29 03:25:57;;;;;;;2.40;1.77;;;;;;;20.49;38.09;102416.84;4921060;28;97140;-72
2024/01/29 03:28:22;;;;;;;2.13;1.02;;;;;;;20.48;38.13;102415.09;4908463;28;97685;-72
2024/01/29 03:30:47;;;;;;;2.67;1.70;;;;;;;20.48;38.11;102411.53;4911702;28;126496;-72
2024/01/29 03:33:13;;;;;;;2.53;1.40;;;;;;;20.49;38.03;102405.38;4893649;28;121902;-72
2024/01/29 03:35:38;;;;;;;2.03;1.02;;;;;;;20.48;38.19;102409.81;4888848;28;125006;-72
2024/01/29 03:38:03;;;;;;;2.85;1.52;;;;;;;20.48;37.88;102417.75;4915047;28;103667;-72
2024/01/29 03:40:29;;;;;;;2.00;0.95;;;;;;;20.48;38.25;102419.50;4909522;28;127336;-73
2024/01/29 03:42:54;;;;;;;2.22;1.45;;;;;;;20.48;38.13;102422.16;4928293;28;113117;-72
2024/01/29 03:45:19;;;;;;;2.17;1.08;;;;;;;20.48;38.38;102422.16;4928272;28;97485;-72
2024/01/29 03:47:45;;;;;;;2.22;1.60;;;;;;;20.47;38.31;102431.00;4910920;28;99300;-72
2024/01/29 03:50:10;;;;;;;2.20;1.60;;;;;;;20.47;38.08;102429.22;4927155;28;97185;-72
2024/01/29 03:52:36;;;;;;;1.85;0.98;;;;;;;20.47;37.97;102431.00;4910440;28;108940;-71
2024/01/29 03:55:01;;;;;;;2.17;1.42;;;;;;;20.47;38.17;102434.53;4926654;28;97143;-72
2024/01/29 03:57:27;;;;;;;2.45;1.77;;;;;;;20.47;37.85;102436.31;4926589;28;97654;-72
2024/01/29 03:59:56;;;;;;;2.08;1.52;;;;;;;20.47;37.88;102433.66;4928179;28;126967;-72
2024/01/29 04:02:21;;;;;;;2.55;1.70;;;;;;;20.47;38.14;102429.22;4927617;28;96812;-72
2024/01/29 04:04:48;;;;;;;2.22;1.05;;;;;;;20.46;38.22;102430.13;4928619;28;97300;-72
2024/01/29 04:07:14;;;;;;;2.70;1.73;;;;;;;20.47;37.86;102423.06;4910850;28;99656;-72
2024/01/29 04:09:39;;;;;;;2.30;1.65;;;;;;;20.47;38.01;102420.41;4923179;28;96983;-72
2024/01/29 04:12:05;;;;;;;1.88;1.02;;;;;;;20.47;37.96;102423.06;4927610;28;97166;-72
2024/01/29 04:14:30;;;;;;;2.67;1.45;;;;;;;20.47;38.05;102431.00;4924187;28;96917;-71
2024/01/29 04:16:56;;;;;;;2.42;1.63;;;;;;;20.45;38.22;102423.06;4925251;28;107145;-72
2024/01/29 04:19:21;;;;;;;1.52;1.15;;;;;;;20.46;38.06;102418.63;4923291;28;96849;-72
2024/01/29 04:21:46;;;;;;;2.17;1.45;;;;;;;20.46;38.00;102427.47;4906915;28;96796;-72
2024/01/29 04:24:12;;;;;;;2.15;1.33;;;;;;;20.46;37.84;102423.94;4923784;28;97073;-72
2024/01/29 04:26:40;;;;;;;2.90;2.13;;;;;;;20.47;38.16;102431.00;4918473;28;97138;-72
2024/01/29 04:29:05;;;;;;;2.72;1.83;;;;;;;20.45;38.02;102420.41;4921455;28;98678;-72
2024/01/29 04:31:31;;;;;;;1.90;1.13;;;;;;;20.45;38.00;102427.47;4923315;28;97481;-72
2024/01/29 04:33:56;;;;;;;2.15;1.30;;;;;;;20.45;37.94;102431.00;4910188;28;97223;-72
2024/01/29 04:36:21;;;;;;;1.95;1.50;;;;;;;20.44;37.69;102421.28;4909497;28;125742;-72
2024/01/29 04:38:49;;;;;;;1.70;1.02;;;;;;;20.45;38.14;102432.78;4925787;28;126632;-72
2024/01/29 04:41:19;;;;;;;2.25;1.55;;;;;;;20.45;37.99;102433.66;4910196;28;97073;-72
2024/01/29 04:43:44;;;;;;;2.45;1.50;;;;;;;20.45;37.67;102435.44;4926465;28;96758;-72
2024/01/29 04:46:11;;;;;;;2.63;1.40;;;;;;;20.46;38.01;102431.88;4927156;28;97360;-72
2024/01/29 04:48:37;;;;;;;2.28;1.63;;;;;;;20.44;37.81;102425.72;4924940;28;97310;-72
2024/01/29 04:51:07;;;;;;;2.35;1.35;;;;;;;20.44;37.83;102433.66;4927553;28;96809;-72
2024/01/29 04:53:33;;;;;;;2.30;1.10;;;;;;;20.44;38.08;102436.31;4926716;28;97295;-72
2024/01/29 04:56:00;;;;;;;2.85;1.63;;;;;;;20.45;37.91;102440.72;4925966;28;96829;-72
2024/01/29 04:58:26;;;;;;;1.90;1.00;;;;;;;20.43;38.07;102443.38;4924229;28;98270;-72
2024/01/29 05:00:51;;;;;;;2.20;1.60;;;;;;;20.43;38.00;102434.56;4924978;28;96725;-72
2024/01/29 05:03:17;;;;;;;1.95;1.08;;;;;;;20.43;37.80;102435.44;4924842;28;97280;-72
2024/01/29 05:05:42;;;;;;;2.10;1.05;;;;;;;20.43;37.86;102430.13;4922933;28;126846;-72
2024/01/29 05:08:07;;;;;;;1.75;1.23;;;;;;;20.43;37.70;102434.56;4920373;28;123974;-72
2024/01/29 05:10:33;;;;;;;2.20;1.38;;;;;;;20.44;37.87;102431.00;4907840;28;123137;-72
2024/01/29 05:12:59;;;;;;;2.65;1.10;;;;;;;20.43;37.96;102426.63;4919947;28;96859;-72
2024/01/29 05:15:24;;;;;;;1.98;0.85;;;;;;;20.43;37.67;102439.88;4908172;28;98459;-72
2024/01/29 05:17:49;;;;;;;2.00;1.13;;;;;;;20.43;37.81;102443.38;4916974;28;126413;-72
2024/01/29 05:20:15;;;;;;;1.85;1.13;;;;;;;20.43;38.08;102438.09;4891656;28;99800;-72
2024/01/29 05:22:42;;;;;;;2.30;1.40;;;;;;;20.43;37.70;102432.78;4921654;28;97166;-72
2024/01/29 05:25:07;;;;;;;2.85;1.50;;;;;;;20.42;37.73;102435.44;4909239;28;99595;-72
2024/01/29 05:27:33;;;;;;;2.17;1.30;;;;;;;20.41;37.89;102434.56;4923059;28;98429;-72
2024/01/29 05:29:58;;;;;;;2.00;1.20;;;;;;;20.43;38.16;102437.22;4920800;28;105387;-72
2024/01/29 05:32:23;;;;;;;2.33;1.48;;;;;;;20.42;37.94;102441.59;4926302;28;120147;-71
2024/01/29 05:34:49;;;;;;;1.92;1.10;;;;;;;20.42;37.64;102440.72;4916974;28;117102;-72
2024/01/29 05:37:14;;;;;;;1.90;1.40;;;;;;;20.41;37.95;102439.88;4900791;28;123366;-72
2024/01/29 05:39:39;;;;;;;2.25;1.10;;;;;;;20.40;37.91;102440.72;4908705;28;97693;-72
2024/01/29 05:42:05;;;;;;;2.13;1.10;;;;;;;20.41;37.79;102437.22;4925124;28;96890;-72
2024/01/29 05:44:30;;;;;;;2.63;1.65;;;;;;;20.40;37.62;102440.72;4910723;28;99272;-72
2024/01/29 05:46:56;;;;;;;2.30;1.50;;;;;;;20.40;37.70;102443.38;4921900;28;99156;-72
2024/01/29 05:49:22;;;;;;;2.20;1.20;;;;;;;20.40;37.95;102442.50;4925114;28;96751;-72
2024/01/29 05:51:48;;;;;;;2.40;1.80;;;;;;;20.40;37.76;102443.38;4923751;28;96685;-72
2024/01/29 05:54:13;;;;;;;2.10;1.70;;;;;;;20.40;37.57;102440.72;4928558;28;100079;-72
2024/01/29 05:56:42;;;;;;;2.67;1.20;;;;;;;20.40;37.82;102447.81;4925264;28;96857;-72
2024/01/29 05:59:08;;;;;;;2.58;1.10;;;;;;;20.40;37.62;102451.34;4911483;28;96841;-72
2024/01/29 06:01:34;;;;;;;2.40;1.50;;;;;;;20.40;37.76;102453.13;4930309;28;96742;-72
2024/01/29 06:03:59;;;;;;;1.88;1.20;;;;;;;20.39;37.61;102451.34;4924344;28;98856;-72
2024/01/29 06:06:25;;;;;;;2.45;1.70;;;;;;;20.39;37.79;102451.34;4930017;28;97743;-73
2024/01/29 06:08:50;;;;;;;2.47;1.13;;;;;;;20.38;37.76;102461.06;4921336;28;116016;-72
2024/01/29 06:11:15;;;;;;;3.38;1.60;;;;;;;20.39;37.77;102461.94;4911544;28;96866;-72
2024/01/29 06:13:41;;;;;;;2.88;1.55;;;;;;;20.39;37.59;102459.28;4926253;28;97542;-73
2024/01/29 06:16:06;;;;;;;2.13;1.15;;;;;;;20.38;37.64;102461.06;4899418;28;125540;-71
2024/01/29 06:18:32;;;;;;;2.30;1.77;;;;;;;20.38;37.87;102458.41;4908757;28;97287;-72
2024/01/29 06:20:57;;;;;;;2.45;1.50;;;;;;;20.38;37.71;102454.91;4917305;28;97091;-72
2024/01/29 06:23:22;;;;;;;2.28;1.17;;;;;;;20.38;37.90;102452.25;4920598;28;97424;-72
2024/01/29 06:25:48;;;;;;;2.30;1.45;;;;;;;20.38;37.88;102452.25;4928922;28;111262;-72
2024/01/29 06:28:13;;;;;;;2.00;1.30;;;;;;;20.37;37.66;102443.38;4900517;28;96990;-72
2024/01/29 06:30:40;;;;;;;2.10;1.63;;;;;;;20.37;37.70;102448.69;4900477;28;98266;-72
2024/01/29 06:33:05;;;;;;;3.03;1.35;;;;;;;20.37;37.97;102448.69;4912000;28;97080;-72
2024/01/29 06:35:30;;;;;;;1.90;1.60;;;;;;;20.37;37.72;102445.16;4923517;28;122957;-72
2024/01/29 06:37:56;;;;;;;2.25;1.55;;;;;;;20.37;37.92;102453.97;4910178;28;116471;-72
2024/01/29 06:40:27;;;;;;;2.47;1.63;;;;;;;20.37;37.45;102446.03;4929803;28;97301;-72
2024/01/29 06:42:54;;;;;;;2.03;1.52;;;;;;;20.36;37.82;102452.25;4912246;28;97011;-72
2024/01/29 06:45:19;;;;;;;2.58;1.38;;;;;;;20.37;37.73;102447.81;4928789;28;96809;-72
2024/01/29 06:47:45;;;;;;;3.42;1.77;;;;;;;20.37;37.72;102453.97;4928876;28;97188;-71
2024/01/29 06:50:10;;;;;;;2.13;1.20;;;;;;;20.37;37.63;102451.34;4911019;28;121075;-72
2024/01/29 06:52:35;;;;;;;2.38;1.45;;;;;;;20.36;37.62;102446.94;4908888;28;97421;-72
2024/01/29 06:55:01;;;;;;;2.03;1.63;;;;;;;20.37;37.65;102445.16;4927514;28;126793;-72
2024/01/29 06:57:26;;;;;;;2.92;1.70;;;;;;;20.36;37.54;102454.91;4927351;28;122267;-72
2024/01/29 06:59:51;;;;;;;2.13;1.42;;;;;;;20.35;37.76;102461.94;4911235;28;119064;-72
2024/01/29 07:02:17;;;;;;;2.33;1.23;;;;;;;20.36;37.52;102462.84;4907915;28;122318;-72
2024/01/29 07:04:43;;;;;;;2.25;1.63;;;;;;;20.35;37.69;102469.88;4928387;28;97207;-71
2024/01/29 07:07:08;;;;;;;1.70;1.20;;;;;;;20.34;37.77;102462.84;4928751;28;96751;-72
2024/01/29 07:09:34;;;;;;;2.67;1.80;;;;;;;20.35;37.70;102472.53;4910353;28;97057;-74
2024/01/29 07:11:59;;;;;;;2.10;1.50;;;;;;;20.35;37.44;102477.84;4910127;28;122920;-72
2024/01/29 07:14:25;;;;;;;2.03;1.60;;;;;;;20.34;37.63;102486.69;4924676;28;124758;-73
2024/01/29 07:16:50;;;;;;;2.13;1.55;;;;;;;20.34;37.67;102476.09;4927402;28;96987;-72
2024/01/29 07:19:22;;;;;;;1.85;1.05;;;;;;;20.34;37.50;102484.03;4925286;28;97277;-72
2024/01/29 07:21:49;;;;;;;2.55;1.33;;;;;;;20.34;37.63;102486.69;4909957;28;97571;-71
2024/01/29 07:24:14;;;;;;;2.83;1.10;;;;;;;20.34;37.58;102497.28;4923209;28;98117;-72
2024/01/29 07:26:40;;;;;;;2.72;1.55;;;;;;;20.34;37.86;102497.28;4914964;28;97103;-72
2024/01/29 07:29:05;;;;;;;3.90;1.70;;;;;;;20.34;37.56;102499.06;4913602;28;105508;-72
2024/01/29 07:31:30;;;;;;;2.03;1.15;;;;;;;20.34;37.47;102502.59;4935304;28;106430;-72
2024/01/29 07:33:56;;;;;;;1.95;1.27;;;;;;;20.33;37.59;102506.13;4902000;28;127562;-72
2024/01/29 07:36:22;;;;;;;2.15;1.60;;;;;;;20.33;37.59;102507.88;4913105;28;100902;-72
2024/01/29 07:38:48;;;;;;;2.15;1.00;;;;;;;20.34;37.71;102521.13;4921690;28;96962;-72
2024/01/29 07:41:13;;;;;;;1.98;1.17;;;;;;;20.33;37.74;102518.50;4938148;28;97535;-72
2024/01/29 07:43:39;;;;;;;2.38;1.13;;;;;;;20.33;37.48;102516.72;4929617;28;96772;-72
2024/01/29 07:46:04;;;;;;;2.35;1.33;;;;;;;20.33;37.56;102524.66;4926166;28;96751;-72
2024/01/29 07:48:30;;;;;;;2.17;1.15;;;;;;;20.33;37.42;102526.44;4910881;28;97355;-71
2024/01/29 07:50:56;;;;;;;2.28;1.23;;;;;;;20.33;37.61;102524.66;4924636;28;97693;-72
2024/01/29 07:53:22;;;;;;;2.08;1.17;;;;;;;20.34;37.40;102522.91;4910942;28;97981;-72
2024/01/29 07:55:47;;;;;;;2.17;1.65;;;;;;;20.33;37.61;102518.50;4907430;28;96765;-72
2024/01/29 07:58:13;;;;;;;2.25;1.02;;;;;;;20.33;37.84;102511.41;4918527;28;96960;-72
2024/01/29 08:00:39;;;;;;;1.95;1.30;;;;;;;20.33;37.59;102524.66;4914568;28;97250;-72
2024/01/29 08:03:06;;;;;;;2.75;1.23;;;;;;;20.33;37.73;102519.34;4917201;28;97439;-72
2024/01/29 08:05:32;;;;;;;2.00;1.10;;;;;;;20.33;37.78;102527.31;4907717;28;96797;-72
2024/01/29 08:07:57;;;;;;;2.05;1.17;;;;;;;20.32;37.54;102517.63;4908789;28;96764;-72
2024/01/29 08:10:23;;;;;;;2.08;0.95;;;;;;;20.33;37.73;102522.00;4921892;28;98028;-72
2024/01/29 08:12:48;;;;;;;2.60;1.80;;;;;;;20.34;37.85;102528.22;4926889;28;96724;-72
2024/01/29 08:15:15;;;;;;;4.00;1.83;;;;;;;20.33;37.71;102521.13;4923594;28;97038;-72
2024/01/29 08:17:40;;;;;;;2.45;1.70;;;;;;;20.33;37.38;102522.00;4925172;28;96841;-72
2024/01/29 08:20:06;;;;;;;2.47;1.70;;;;;;;20.34;37.72;102522.91;4920312;28;126055;-72
2024/01/29 08:22:32;;;;;;;2.30;1.55;;;;;;;20.33;37.51;102519.34;4916455;28;97308;-72
2024/01/29 08:24:59;;;;;;;2.78;1.10;;;;;;;20.34;37.71;102517.63;4916380;28;96806;-72
2024/01/29 08:27:24;;;;;;;2.50;1.60;;;;;;;20.34;37.44;102517.63;4907903;28;96929;-72
2024/01/29 08:29:50;;;;;;;2.85;1.33;;;;;;;20.33;37.58;102522.00;4921547;28;99893;-72
2024/01/29 08:32:15;;;;;;;2.90;1.65;;;;;;;20.33;37.75;102526.44;4925746;28;96727;-72
2024/01/29 08:34:40;;;;;;;2.40;1.40;;;;;;;20.33;37.75;102527.31;4922317;28;121729;-72
2024/01/29 08:37:06;;;;;;;4.40;1.42;;;;;;;20.33;37.70;102532.63;4909500;28;113007;-72
2024/01/29 08:39:32;;;;;;;2.55;2.10;;;;;;;20.34;37.64;102541.47;4905492;28;96697;-72
2024/01/29 08:41:57;;;;;;;2.20;1.50;;;;;;;20.34;37.41;102533.53;4912518;28;97613;-72
2024/01/29 08:44:23;;;;;;;3.25;2.00;;;;;;;20.34;37.54;102542.34;4917140;28;120762;-72
2024/01/29 08:46:49;;;;;;;3.05;1.55;;;;;;;20.35;37.51;102545.88;4908258;28;96794;-71
2024/01/29 08:49:16;;;;;;;2.28;1.20;;;;;;;20.35;37.46;102553.81;4916026;28;99568;-72
2024/01/29 08:51:42;;;;;;;2.40;1.13;;;;;;;20.36;37.45;102545.00;4925970;28;97063;-72
2024/01/29 08:54:07;;;;;;;2.67;1.80;;;;;;;20.35;37.50;102540.56;4927904;28;96742;-72
2024/01/29 08:56:33;;;;;;;2.35;1.23;;;;;;;20.36;37.56;102547.63;4927279;28;96865;-72
2024/01/29 08:58:58;;;;;;;2.20;1.73;;;;;;;20.36;37.73;102547.63;4919119;28;97510;-72
2024/01/29 09:01:24;;;;;;;2.80;1.70;;;;;;;20.35;37.33;102544.09;4906356;28;97391;-72
2024/01/29 09:03:51;;;;;;;3.25;1.42;;;;;;;20.37;37.64;102544.09;4925573;28;97273;-72
2024/01/29 09:06:16;;;;;;;2.13;1.13;;;;;;;20.36;37.77;102529.09;4923899;28;97111;-72
2024/01/29 09:08:42;;;;;;;2.75;1.63;;;;;;;20.37;37.75;102527.31;4906550;28;97358;-72
2024/01/29 09:11:07;;;;;;;4.22;1.77;;;;;;;20.37;37.82;102532.63;4908777;28;97718;-72
2024/01/29 09:13:32;;;;;;;3.42;1.80;;;;;;;20.36;37.83;102529.09;4916446;28;119141;-72
2024/01/29 09:15:58;;;;;;;2.53;1.67;;;;;;;20.36;37.43;102531.75;4911152;28;118395;-72
2024/01/29 09:18:24;;;;;;;2.40;1.55;;;;;;;20.37;37.73;102537.91;4909385;28;100547;-72
2024/01/29 09:20:49;;;;;;;3.20;1.25;;;;;;;20.36;37.65;102531.75;4923857;28;97141;-72
2024/01/29 09:23:14;;;;;;;2.42;1.70;;;;;;;20.37;37.78;102524.66;4912868;28;104192;-73
2024/01/29 09:25:41;;;;;;;2.53;1.67;;;;;;;20.37;37.63;102522.00;4927241;28;97344;-72
2024/01/29 09:28:07;;;;;;;2.30;1.23;;;;;;;20.37;37.67;102525.53;4934826;28;97222;-72
2024/01/29 09:30:32;;;;;;;2.17;1.42;;;;;;;20.37;37.55;102528.19;4907573;28;98989;-72
2024/01/29 09:32:58;;;;;;;2.72;1.60;;;;;;;20.37;37.52;102528.19;4922865;28;96800;-72
2024/01/29 09:35:24;;;;;;;3.08;1.23;;;;;;;20.38;37.55;102529.97;4923110;28;98323;-72
2024/01/29 09:37:50;;;;;;;3.92;2.25;;;;;;;20.37;37.52;102522.88;4922142;28;96933;-72
2024/01/29 09:40:15;;;;;;;2.60;1.38;;;;;;;20.39;37.48;102530.84;4925149;28;97232;-72
2024/01/29 09:42:45;;;;;;;6.10;1.83;;;;;;;20.38;37.77;102535.28;4889829;28;96900;-72
2024/01/29 09:45:11;;;;;;;2.45;1.70;;;;;;;20.38;37.56;102539.69;4920690;28;96886;-72
2024/01/29 09:47:37;;;;;;;4.35;2.05;;;;;;;20.39;37.62;102533.50;4910092;28;97549;-73
2024/01/29 09:50:07;;;;;;;3.60;1.90;;;;;;;20.39;37.76;102536.13;4925708;28;99449;-72
2024/01/29 09:52:37;;;;;;;3.65;1.40;;;;;;;20.39;37.67;102538.78;4929634;28;96964;-72
2024/01/29 09:55:04;;;;;;;2.20;1.50;;;;;;;20.38;37.70;102531.75;4930014;28;96862;-72
2024/01/29 09:57:29;;;;;;;2.10;1.00;;;;;;;20.39;37.63;102542.31;4895792;28;96877;-72
2024/01/29 09:59:55;;;;;;;2.72;1.65;;;;;;;20.40;37.83;102537.91;4929367;28;96998;-72
2024/01/29 10:02:21;;;;;;;4.68;1.55;;;;;;;20.39;37.91;102546.75;4912253;28;96885;-72
2024/01/29 10:04:47;;;;;;;2.95;1.40;;;;;;;20.40;37.74;102557.34;4929504;28;96859;-72
2024/01/29 10:07:14;;;;;;;3.08;1.33;;;;;;;20.40;37.85;102548.53;4929827;28;97494;-72
2024/01/29 10:09:39;;;;;;;2.22;1.55;;;;;;;20.40;37.95;102556.47;4911208;28;97638;-72
2024/01/29 10:12:05;;;;;;;2.65;1.67;;;;;;;20.39;37.89;102542.31;4911113;28;123147;-72
2024/01/29 10:14:30;;;;;;;3.85;1.48;;;;;;;20.40;37.64;102544.09;4929017;28;96802;-72
2024/01/29 10:16:55;;;;;;;4.20;1.90;;;;;;;20.41;37.98;102551.16;4923494;28;98060;-72
2024/01/29 10:19:21;;;;;;;3.45;1.60;;;;;;;20.41;37.84;102558.22;4925949;28;120620;-71
2024/01/29 10:21:47;;;;;;;2.45;1.52;;;;;;;20.42;38.08;102565.31;4933576;28;96755;-71
2024/01/29 10:24:14;;;;;;;3.03;1.80;;;;;;;20.43;37.69;102560.00;4922585;28;97184;-71
2024/01/29 10:26:44;;;;;;;3.03;1.55;;;;;;;20.44;37.72;102555.56;4923656;28;97573;-72
2024/01/29 10:29:11;;;;;;;2.30;1.63;;;;;;;20.44;37.71;102556.44;4919565;28;97250;-71
2024/01/29 10:31:37;;;;;;;2.60;1.52;;;;;;;20.44;37.68;102559.09;4921700;28;99190;-71
2024/01/29 10:34:03;;;;;;;2.53;1.52;;;;;;;20.44;37.68;102561.75;4932014;28;97240;-72
2024/01/29 10:36:29;;;;;;;3.20;1.73;;;;;;;20.46;37.92;102569.69;4921968;28;96992;-71
2024/01/29 10:38:59;;;;;;;2.80;1.83;;;;;;;20.46;37.72;102573.25;4923203;28;97210;-71
2024/01/29 10:41:25;;;;;;;2.47;1.50;;;;;;;20.47;37.79;102582.97;4920347;28;97514;-71
2024/01/29 10:43:52;;;;;;;2.90;1.55;;;;;;;20.48;37.79;102578.53;4921783;28;96800;-71
2024/01/29 10:46:19;;;;;;;4.47;1.50;;;;;;;20.48;38.00;102576.78;4915686;28;97693;-71
2024/01/29 10:48:46;;;;;;;3.80;1.83;;;;;;;20.49;38.00;102575.00;4918846;28;96964;-71
2024/01/29 10:51:13;;;;;;;2.50;1.48;;;;;;;20.49;38.06;102578.53;4927852;28;97450;-72
2024/01/29 10:53:40;;;;;;;3.00;2.03;;;;;;;20.49;37.78;102572.34;4889473;28;96861;-71
2024/01/29 10:56:06;;;;;;;3.72;1.85;;;;;;;20.50;38.00;102569.72;4924635;28;97135;-71
2024/01/29 10:58:33;;;;;;;2.97;1.35;;;;;;;20.51;37.96;102573.22;4926830;28;97249;-72
2024/01/29 11:00:59;;;;;;;4.00;1.42;;;;;;;20.52;38.03;102569.72;4909282;28;97167;-71
2024/01/29 11:03:26;;;;;;;3.47;1.40;;;;;;;20.51;37.79;102574.09;4926928;28;97669;-71
2024/01/29 11:06:27;;;;;;;3.22;2.03;;;;;;;20.51;38.08;102574.09;4892127;28;97405;-71
2024/01/29 11:08:58;;;;;;;2.80;1.67;;;;;;;20.50;38.03;102576.78;4907389;28;97277;-71
2024/01/29 11:11:27;;;;;;;3.97;1.80;;;;;;;20.51;37.90;102581.19;4914763;28;97154;-71
2024/01/29 11:13:53;;;;;;;2.63;1.75;;;;;;;20.50;37.79;102580.31;4917977;28;96960;-71
2024/01/29 11:16:21;;;;;;;2.22;1.38;;;;;;;20.51;38.12;102573.22;4922789;28;97698;-72
2024/01/29 11:18:48;;;;;;;2.88;1.50;;;;;;;20.50;37.86;102576.78;4909805;28;99374;-71